createdAt,value
2018-08-22T00:00:57.055Z,8.03
2018-08-22T00:03:25.983Z,7.93
2018-08-22T00:05:54.512Z,8.93
2018-08-22T00:08:53.510Z,7.00
2018-08-22T00:11:22.282Z,7.27
2018-08-22T00:13:50.849Z,8.70
2018-08-22T00:16:19.440Z,7.60
2018-08-22T00:18:48.298Z,8.50
2018-08-22T00:21:16.816Z,6.57
2018-08-22T00:23:45.325Z,7.30
2018-08-22T00:26:14.153Z,7.07
2018-08-22T00:28:42.711Z,7.00
2018-08-22T00:31:11.366Z,9.37
2018-08-22T00:33:46.486Z,25.13
2018-08-22T00:36:15.134Z,7.47
2018-08-22T00:38:43.604Z,6.53
2018-08-22T00:41:12.528Z,7.37
2018-08-22T00:43:41.020Z,7.23
2018-08-22T00:46:09.532Z,6.63
2018-08-22T00:48:38.270Z,7.77
2018-08-22T00:51:06.750Z,6.40
2018-08-22T00:53:35.462Z,7.20
2018-08-22T00:56:05.360Z,6.80
2018-08-22T00:58:34.024Z,7.10
2018-08-22T01:01:02.742Z,7.20
2018-08-22T01:03:31.553Z,7.10
2018-08-22T01:06:00.357Z,6.53
2018-08-22T01:08:28.835Z,7.27
2018-08-22T01:10:57.588Z,6.33
2018-08-22T01:13:26.120Z,7.40
2018-08-22T01:15:54.614Z,6.63
2018-08-22T01:18:23.582Z,7.23
2018-08-22T01:20:52.094Z,6.60
2018-08-22T01:23:20.634Z,11.73
2018-08-22T01:25:49.943Z,10.00
2018-08-22T01:28:19.452Z,7.23
2018-08-22T01:30:48.697Z,7.30
2018-08-22T01:33:17.464Z,7.50
2018-08-22T01:35:47.078Z,7.83
2018-08-22T01:38:15.556Z,7.17
2018-08-22T01:40:44.383Z,7.70
2018-08-22T01:43:12.967Z,6.93
2018-08-22T01:45:41.507Z,7.53
2018-08-22T01:48:10.271Z,7.63
2018-08-22T01:50:39.627Z,7.80
2018-08-22T01:53:08.079Z,8.87
2018-08-22T01:55:36.952Z,8.20
2018-08-22T01:58:06.251Z,7.83
2018-08-22T02:00:34.779Z,7.33
2018-08-22T02:05:42.765Z,8.17
2018-08-22T02:08:11.942Z,7.80
2018-08-22T02:10:40.592Z,7.97
2018-08-22T02:13:09.581Z,7.57
2018-08-22T02:15:38.350Z,7.80
2018-08-22T02:18:06.995Z,8.23
2018-08-22T02:20:35.504Z,6.80
2018-08-22T02:23:04.047Z,7.03
2018-08-22T02:25:33.036Z,7.90
2018-08-22T02:28:01.564Z,7.37
2018-08-22T02:30:30.060Z,7.73
2018-08-22T02:32:58.540Z,8.13
2018-08-22T02:35:27.038Z,7.23
2018-08-22T02:37:55.613Z,7.70
2018-08-22T02:40:24.276Z,7.37
2018-08-22T02:42:53.054Z,8.13
2018-08-22T02:45:21.576Z,7.53
2018-08-22T02:47:50.089Z,8.13
2018-08-22T02:50:20.032Z,7.53
2018-08-22T02:52:48.525Z,7.87
2018-08-22T02:55:17.095Z,7.90
2018-08-22T02:57:46.108Z,7.60
2018-08-22T03:00:15.667Z,7.80
2018-08-22T03:02:44.196Z,8.00
2018-08-22T03:05:13.014Z,7.70
2018-08-22T03:07:41.563Z,7.70
2018-08-22T03:10:10.051Z,7.37
2018-08-22T03:12:38.868Z,8.83
2018-08-22T03:15:07.355Z,7.77
2018-08-22T03:17:35.887Z,7.23
2018-08-22T03:20:06.441Z,7.20
2018-08-22T03:22:34.967Z,7.90
2018-08-22T03:25:03.499Z,7.10
2018-08-22T03:27:32.237Z,7.03
2018-08-22T03:30:00.701Z,7.07
2018-08-22T03:32:29.206Z,7.70
2018-08-22T03:34:57.988Z,6.70
2018-08-22T03:37:26.543Z,7.20
2018-08-22T03:39:55.173Z,6.77
2018-08-22T03:42:24.255Z,7.47
2018-08-22T03:44:52.806Z,6.60
2018-08-22T03:47:21.606Z,6.03
2018-08-22T03:49:50.101Z,7.40
2018-08-22T03:52:19.387Z,7.73
2018-08-22T03:54:47.915Z,7.47
2018-08-22T03:57:16.685Z,20.03
2018-08-22T03:59:45.175Z,11.50
2018-08-22T04:02:13.650Z,7.80
2018-08-22T04:04:42.172Z,7.10
2018-08-22T04:07:10.675Z,7.67
2018-08-22T04:09:39.575Z,6.53
2018-08-22T04:12:08.113Z,7.30
2018-08-22T04:14:36.700Z,7.20
2018-08-22T04:17:06.008Z,7.70
2018-08-22T04:19:34.555Z,7.90
2018-08-22T04:22:04.025Z,7.50
2018-08-22T04:24:32.903Z,7.67
2018-08-22T04:27:01.511Z,9.83
2018-08-22T04:29:30.126Z,8.10
2018-08-22T04:31:58.904Z,8.50
2018-08-22T04:34:27.418Z,9.13
2018-08-22T04:36:55.977Z,8.23
2018-08-22T04:39:24.943Z,8.07
2018-08-22T04:41:53.555Z,8.60
2018-08-22T04:44:22.136Z,7.53
2018-08-22T04:46:50.957Z,8.90
2018-08-22T04:49:20.036Z,8.80
2018-08-22T04:51:48.531Z,53.40
2018-08-22T04:54:18.791Z,15.33
2018-08-22T04:56:47.291Z,12.13
2018-08-22T04:59:15.840Z,12.87
2018-08-22T05:01:52.249Z,13.50
2018-08-22T05:04:21.067Z,12.50
2018-08-22T05:06:49.612Z,12.07
2018-08-22T05:09:18.483Z,11.07
2018-08-22T05:11:47.034Z,11.73
2018-08-22T05:14:15.615Z,10.40
2018-08-22T05:16:44.431Z,11.43
2018-08-22T05:19:12.979Z,9.17
2018-08-22T05:21:41.503Z,10.43
2018-08-22T05:24:10.340Z,9.90
2018-08-22T05:26:38.901Z,10.23
2018-08-22T05:29:07.420Z,10.07
2018-08-22T05:31:36.371Z,10.40
2018-08-22T05:34:05.875Z,11.33
2018-08-22T05:36:34.542Z,10.17
2018-08-22T05:39:03.619Z,9.50
2018-08-22T05:41:32.147Z,10.30
2018-08-22T05:44:00.772Z,9.80
2018-08-22T05:46:29.652Z,10.70
2018-08-22T05:48:58.235Z,10.40
2018-08-22T05:51:26.796Z,12.20
2018-08-22T05:53:55.931Z,11.20
2018-08-22T05:56:24.491Z,11.17
2018-08-22T05:58:53.083Z,11.60
2018-08-22T06:01:21.926Z,10.87
2018-08-22T06:03:50.448Z,15.57
2018-08-22T06:06:19.060Z,13.57
2018-08-22T06:08:48.055Z,11.43
2018-08-22T06:11:16.694Z,13.80
2018-08-22T06:13:45.308Z,11.83
2018-08-22T06:16:14.211Z,10.80
2018-08-22T06:18:42.776Z,11.77
2018-08-22T06:21:11.341Z,12.90
2018-08-22T06:23:40.328Z,11.30
2018-08-22T06:26:08.959Z,11.23
2018-08-22T06:28:37.519Z,11.70
2018-08-22T06:31:06.372Z,11.30
2018-08-22T06:33:35.630Z,12.40
2018-08-22T06:36:04.882Z,11.60
2018-08-22T06:38:35.075Z,12.10
2018-08-22T06:41:05.035Z,10.37
2018-08-22T06:43:33.635Z,12.27
2018-08-22T06:46:04.467Z,12.00
2018-08-22T06:48:34.019Z,12.40
2018-08-22T06:51:02.698Z,10.60
2018-08-22T06:53:32.264Z,11.30
2018-08-22T06:56:00.851Z,11.90
2018-08-22T06:58:29.421Z,11.40
2018-08-22T07:00:58.430Z,11.80
2018-08-22T07:03:27.026Z,11.63
2018-08-22T07:05:55.567Z,9.77
2018-08-22T07:08:24.381Z,16.33
2018-08-22T07:10:52.986Z,12.03
2018-08-22T07:13:21.534Z,11.40
2018-08-22T07:15:50.486Z,11.10
2018-08-22T07:18:19.201Z,12.03
2018-08-22T07:20:48.092Z,11.90
2018-08-22T07:23:17.326Z,12.40
2018-08-22T07:25:45.849Z,12.87
2018-08-22T07:28:14.424Z,13.63
2018-08-22T07:30:43.436Z,11.40
2018-08-22T07:33:11.984Z,11.60
2018-08-22T07:35:40.583Z,11.27
2018-08-22T07:38:09.543Z,11.83
2018-08-22T07:40:38.314Z,11.00
2018-08-22T07:43:07.280Z,12.67
2018-08-22T07:45:36.156Z,12.50
2018-08-22T07:48:05.776Z,12.33
2018-08-22T07:50:34.760Z,11.73
2018-08-22T07:53:04.747Z,10.47
2018-08-22T07:55:38.305Z,12.03
2018-08-22T07:58:07.013Z,9.83
2018-08-22T08:00:35.975Z,9.33
2018-08-22T08:03:04.519Z,10.30
2018-08-22T08:05:35.081Z,9.70
2018-08-22T08:08:04.829Z,10.53
2018-08-22T08:10:34.552Z,9.33
2018-08-22T08:13:03.817Z,8.40
2018-08-22T08:15:33.042Z,9.37
2018-08-22T08:18:03.251Z,9.10
2018-08-22T08:20:31.767Z,9.33
2018-08-22T08:23:00.776Z,9.60
2018-08-22T08:25:29.396Z,9.40
2018-08-22T08:27:57.920Z,10.53
2018-08-22T08:30:26.764Z,8.40
2018-08-22T08:32:55.948Z,8.73
2018-08-22T08:35:24.778Z,9.00
2018-08-22T08:37:53.674Z,8.73
2018-08-22T08:40:22.195Z,8.53
2018-08-22T08:42:50.928Z,8.70
2018-08-22T08:45:19.783Z,8.20
2018-08-22T08:47:48.354Z,7.30
2018-08-22T08:50:16.909Z,8.23
2018-08-22T08:52:45.739Z,7.90
2018-08-22T08:55:14.375Z,8.03
2018-08-22T08:57:42.997Z,8.20
2018-08-22T09:00:11.802Z,7.53
2018-08-22T09:02:40.406Z,7.40
2018-08-22T09:05:09.045Z,7.00
2018-08-22T09:07:37.947Z,7.60
2018-08-22T09:10:06.915Z,7.97
2018-08-22T09:12:37.284Z,7.27
2018-08-22T09:15:06.756Z,7.80
2018-08-22T09:17:35.259Z,6.90
2018-08-22T09:20:04.932Z,7.00
2018-08-22T09:22:33.791Z,7.13
2018-08-22T09:25:02.295Z,7.77
2018-08-22T09:27:30.813Z,7.33
2018-08-22T09:29:59.607Z,7.90
2018-08-22T09:32:28.118Z,7.57
2018-08-22T09:34:56.667Z,7.23
2018-08-22T09:37:25.516Z,7.47
2018-08-22T09:39:54.254Z,6.93
2018-08-22T09:42:22.725Z,7.90
2018-08-22T09:44:51.435Z,6.87
2018-08-22T09:47:20.131Z,6.67
2018-08-22T09:49:48.813Z,7.70
2018-08-22T09:52:17.680Z,7.10
2018-08-22T09:54:59.787Z,6.70
2018-08-22T09:57:29.336Z,7.70
2018-08-22T09:59:57.929Z,6.80
2018-08-22T10:02:26.628Z,6.47
2018-08-22T10:04:55.822Z,4.93
2018-08-22T10:07:24.818Z,6.23
2018-08-22T10:09:53.349Z,6.57
2018-08-22T10:12:22.416Z,6.73
2018-08-22T10:14:51.420Z,6.33
2018-08-22T10:17:19.960Z,6.70
2018-08-22T10:19:48.757Z,6.90
2018-08-22T10:22:17.306Z,5.93
2018-08-22T10:24:45.873Z,5.80
2018-08-22T10:27:14.691Z,6.17
2018-08-22T10:29:43.227Z,5.87
2018-08-22T10:32:11.755Z,5.30
2018-08-22T10:34:40.598Z,6.30
2018-08-22T10:37:09.303Z,6.30
2018-08-22T10:39:37.822Z,6.50
2018-08-22T10:42:06.720Z,6.17
2018-08-22T10:44:35.401Z,6.03
2018-08-22T10:47:03.886Z,6.37
2018-08-22T10:49:32.823Z,5.93
2018-08-22T10:52:03.388Z,5.70
2018-08-22T10:54:32.156Z,5.67
2018-08-22T10:57:01.011Z,5.20
2018-08-22T10:59:29.637Z,5.60
2018-08-22T11:01:58.280Z,5.13
2018-08-22T11:04:27.155Z,5.00
2018-08-22T11:06:55.775Z,5.53
2018-08-22T11:09:24.575Z,4.50
2018-08-22T11:11:53.389Z,5.27
2018-08-22T11:14:21.945Z,6.10
2018-08-22T11:16:51.144Z,5.43
2018-08-22T11:19:19.981Z,5.13
2018-08-22T11:21:59.508Z,5.87
2018-08-22T11:24:39.111Z,5.30
2018-08-22T11:27:18.661Z,5.83
2018-08-22T11:29:58.659Z,5.27
2018-08-22T11:32:38.164Z,5.10
2018-08-22T11:35:05.675Z,5.53
2018-08-22T11:37:34.349Z,5.20
2018-08-22T11:40:03.804Z,5.17
2018-08-22T11:42:32.836Z,5.30
2018-08-22T11:45:01.771Z,5.70
2018-08-22T11:47:30.334Z,6.10
2018-08-22T11:49:59.195Z,5.17
2018-08-22T11:52:27.753Z,5.20
2018-08-22T11:54:56.898Z,5.87
2018-08-22T11:57:25.798Z,5.80
2018-08-22T11:59:54.428Z,5.73
2018-08-22T12:02:23.031Z,5.00
2018-08-22T12:04:51.819Z,5.13
2018-08-22T12:07:20.419Z,5.10
2018-08-22T12:09:48.965Z,4.83
2018-08-22T12:12:18.158Z,5.40
2018-08-22T12:14:46.729Z,5.80
2018-08-22T12:17:15.326Z,5.00
2018-08-22T12:19:44.340Z,5.93
2018-08-22T12:22:12.920Z,5.60
2018-08-22T12:24:41.520Z,5.20
2018-08-22T12:27:10.637Z,5.03
2018-08-22T12:29:39.349Z,4.90
2018-08-22T12:32:07.981Z,5.10
2018-08-22T12:34:36.840Z,4.70
2018-08-22T12:37:05.756Z,4.33
2018-08-22T12:39:34.376Z,5.67
2018-08-22T12:42:05.560Z,5.20
2018-08-22T12:44:34.460Z,4.93
2018-08-22T12:47:04.623Z,5.00
2018-08-22T12:49:35.305Z,4.83
2018-08-22T12:52:05.839Z,4.77
2018-08-22T12:54:35.688Z,5.23
2018-08-22T12:57:04.951Z,5.33
2018-08-22T12:59:33.802Z,4.20
2018-08-22T13:02:04.296Z,4.67
2018-08-22T13:04:34.589Z,4.70
2018-08-22T13:07:03.270Z,4.17
2018-08-22T13:09:32.094Z,3.70
2018-08-22T13:12:00.917Z,3.60
2018-08-22T13:14:29.431Z,4.20
2018-08-22T13:16:58.122Z,4.40
2018-08-22T13:19:26.896Z,4.50
2018-08-22T13:21:55.467Z,4.47
2018-08-22T13:24:24.035Z,4.50
2018-08-22T13:26:52.854Z,4.00
2018-08-22T13:29:21.495Z,4.50
2018-08-22T13:31:51.056Z,4.40
2018-08-22T13:34:19.921Z,3.93
2018-08-22T13:36:49.560Z,3.77
2018-08-22T13:39:29.517Z,4.40
2018-08-22T13:42:12.472Z,4.13
2018-08-22T13:44:42.320Z,3.70
2018-08-22T13:47:11.431Z,4.20
2018-08-22T13:49:40.261Z,3.80
2018-08-22T13:52:08.861Z,3.83
2018-08-22T13:54:38.286Z,3.70
2018-08-22T13:57:07.016Z,4.00
2018-08-22T13:59:35.762Z,4.07
2018-08-22T14:02:05.623Z,3.50
2018-08-22T14:04:34.320Z,3.33
2018-08-22T14:07:02.936Z,4.27
2018-08-22T14:09:31.768Z,4.17
2018-08-22T14:12:00.327Z,3.62
2018-08-22T14:14:28.962Z,3.65
2018-08-22T14:16:57.805Z,3.12
2018-08-22T14:19:26.421Z,4.33
2018-08-22T14:21:55.003Z,3.30
2018-08-22T14:24:23.872Z,3.35
2018-08-22T14:26:52.390Z,3.60
2018-08-22T14:29:20.966Z,3.72
2018-08-22T14:31:50.685Z,3.35
2018-08-22T14:34:19.386Z,3.55
2018-08-22T14:36:47.916Z,3.47
2018-08-22T14:39:16.834Z,3.85
2018-08-22T14:41:45.353Z,3.72
2018-08-22T14:44:13.879Z,3.45
2018-08-22T14:46:42.775Z,4.00
2018-08-22T14:49:11.431Z,3.30
2018-08-22T14:51:40.013Z,4.17
2018-08-22T14:54:08.841Z,3.70
2018-08-22T14:56:37.439Z,4.25
2018-08-22T14:59:06.339Z,3.75
2018-08-22T15:01:35.224Z,3.72
2018-08-22T15:04:04.448Z,4.22
2018-08-22T15:06:32.985Z,3.58
2018-08-22T15:09:07.079Z,4.85
2018-08-22T15:11:36.522Z,3.70
2018-08-22T15:14:06.683Z,4.15
2018-08-22T15:16:35.467Z,3.80
2018-08-22T15:19:04.041Z,3.33
2018-08-22T15:21:32.600Z,4.25
2018-08-22T15:24:01.185Z,3.75
2018-08-22T15:26:29.818Z,3.85
2018-08-22T15:28:58.631Z,3.95
2018-08-22T15:31:28.022Z,3.92
2018-08-22T15:33:56.797Z,4.15
2018-08-22T15:36:25.802Z,3.83
2018-08-22T15:38:54.333Z,4.12
2018-08-22T15:41:22.933Z,4.08
2018-08-22T15:43:51.867Z,3.50
2018-08-22T15:46:20.455Z,3.50
2018-08-22T15:48:48.942Z,3.65
2018-08-22T15:51:17.765Z,4.58
2018-08-22T15:54:00.226Z,3.80
2018-08-22T15:56:29.031Z,4.10
2018-08-22T15:58:57.773Z,3.92
2018-08-22T16:01:26.313Z,4.07
2018-08-22T16:03:55.113Z,3.97
2018-08-22T16:06:23.737Z,4.73
2018-08-22T16:08:52.329Z,3.87
2018-08-22T16:11:21.091Z,3.90
2018-08-22T16:13:49.915Z,4.47
2018-08-22T16:16:18.442Z,4.30
2018-08-22T16:18:47.403Z,4.27
2018-08-22T16:21:15.928Z,4.50
2018-08-22T16:23:44.696Z,4.20
2018-08-22T16:26:13.517Z,4.20
2018-08-22T16:28:53.477Z,4.30
2018-08-22T16:31:25.322Z,4.60
2018-08-22T16:33:53.952Z,4.20
2018-08-22T16:36:26.606Z,4.17
2018-08-22T16:38:55.149Z,4.60
2018-08-22T16:41:23.691Z,4.03
2018-08-22T16:43:52.826Z,4.67
2018-08-22T16:46:21.350Z,4.50
2018-08-22T16:48:51.413Z,4.70
2018-08-22T16:51:21.451Z,4.43
2018-08-22T16:53:57.757Z,4.20
2018-08-22T16:56:26.382Z,4.60
2018-08-22T16:58:59.199Z,5.20
2018-08-22T17:01:27.839Z,4.67
2018-08-22T17:03:56.495Z,4.80
2018-08-22T17:06:27.653Z,4.30
2018-08-22T17:08:56.856Z,5.03
2018-08-22T17:11:25.422Z,4.67
2018-08-22T17:13:54.659Z,4.83
2018-08-22T17:16:24.300Z,4.37
2018-08-22T17:18:52.808Z,4.73
2018-08-22T17:21:21.622Z,5.10
2018-08-22T17:23:50.463Z,5.07
2018-08-22T17:26:20.028Z,5.10
2018-08-22T17:28:51.003Z,4.17
2018-08-22T17:31:20.452Z,5.20
2018-08-22T17:33:49.896Z,4.87
2018-08-22T17:36:19.131Z,6.10
2018-08-22T17:38:48.942Z,5.90
2018-08-22T17:41:18.345Z,21.97
2018-08-22T17:44:05.912Z,9.40
2018-08-22T17:46:35.735Z,6.17
2018-08-22T17:49:04.705Z,5.03
2018-08-22T17:51:40.175Z,4.97
2018-08-22T17:54:08.750Z,5.50
2018-08-22T17:56:37.890Z,4.93
2018-08-22T17:59:06.412Z,4.80
2018-08-22T18:01:35.105Z,4.60
2018-08-22T18:04:05.215Z,5.57
2018-08-22T18:06:33.875Z,5.20
2018-08-22T18:09:03.879Z,5.50
2018-08-22T18:11:33.792Z,5.70
2018-08-22T18:14:04.235Z,5.00
2018-08-22T18:16:32.755Z,5.47
2018-08-22T18:19:01.603Z,4.77
2018-08-22T18:21:34.288Z,4.87
2018-08-22T18:24:03.441Z,5.40
2018-08-22T18:26:32.233Z,5.27
2018-08-22T18:29:00.938Z,5.83
2018-08-22T18:31:30.026Z,5.50
2018-08-22T18:34:01.260Z,5.87
2018-08-22T18:36:31.589Z,5.90
2018-08-22T18:39:05.345Z,6.60
2018-08-22T18:41:33.894Z,5.63
2018-08-22T18:44:04.019Z,5.13
2018-08-22T18:46:32.657Z,6.30
2018-08-22T18:49:01.859Z,5.60
2018-08-22T18:51:30.837Z,6.87
2018-08-22T18:53:59.707Z,5.70
2018-08-22T18:56:28.292Z,8.67
2018-08-22T18:58:57.244Z,7.77
2018-08-22T19:01:25.832Z,15.43
2018-08-22T19:03:56.516Z,20.30
2018-08-22T19:06:36.960Z,8.97
2018-08-22T19:09:10.816Z,7.47
2018-08-22T19:11:39.995Z,9.47
2018-08-22T19:14:08.536Z,7.20
2018-08-22T19:16:37.160Z,7.03
2018-08-22T19:19:05.981Z,6.40
2018-08-22T19:21:34.636Z,5.87
2018-08-22T19:24:05.908Z,6.83
2018-08-22T19:26:35.019Z,9.10
2018-08-22T19:29:05.729Z,7.90
2018-08-22T19:31:34.501Z,8.23
2018-08-22T19:34:05.082Z,8.27
2018-08-22T19:36:33.618Z,6.53
2018-08-22T19:39:02.504Z,9.07
2018-08-22T19:41:33.162Z,7.40
2018-08-22T19:44:01.736Z,7.47
2018-08-22T19:46:30.725Z,8.67
2018-08-22T19:49:00.558Z,7.70
2018-08-22T19:51:29.383Z,7.50
2018-08-22T19:54:03.732Z,8.47
2018-08-22T19:56:32.508Z,6.40
2018-08-22T19:59:01.770Z,8.70
2018-08-22T20:01:32.757Z,8.20
2018-08-22T20:04:01.570Z,8.73
2018-08-22T20:06:30.436Z,7.90
2018-08-22T20:08:59.878Z,7.80
2018-08-22T20:11:28.843Z,8.90
2018-08-22T20:13:59.815Z,8.87
2018-08-22T20:16:28.484Z,9.43
2018-08-22T20:18:59.144Z,8.37
2018-08-22T20:21:33.146Z,7.80
2018-08-22T20:24:03.402Z,8.07
2018-08-22T20:26:32.587Z,9.80
2018-08-22T20:29:02.740Z,10.07
2018-08-22T20:31:31.527Z,9.50
2018-08-22T20:34:09.843Z,10.37
2018-08-22T20:36:38.715Z,15.10
2018-08-22T20:39:10.166Z,13.90
2018-08-22T20:41:39.467Z,12.37
2018-08-22T20:44:10.595Z,13.83
2018-08-22T20:46:39.407Z,13.37
2018-08-22T20:49:08.007Z,12.90
2018-08-22T20:51:36.907Z,13.73
2018-08-22T20:54:07.880Z,18.90
2018-08-22T20:56:38.256Z,14.20
2018-08-22T20:59:07.077Z,12.70
2018-08-22T21:01:35.631Z,9.90
2018-08-22T21:04:06.658Z,13.17
2018-08-22T21:06:35.556Z,10.80
2018-08-22T21:09:04.999Z,11.23
2018-08-22T21:11:33.689Z,11.47
2018-08-22T21:14:03.462Z,10.63
2018-08-22T21:16:31.967Z,11.20
2018-08-22T21:19:00.499Z,9.13
2018-08-22T21:21:29.296Z,9.47
2018-08-22T21:23:57.919Z,10.00
2018-08-22T21:26:38.589Z,9.40
2018-08-22T21:29:07.515Z,9.20
2018-08-22T21:31:36.524Z,9.60
2018-08-22T21:34:12.915Z,9.40
2018-08-22T21:36:43.811Z,10.13
2018-08-22T21:39:17.587Z,9.43
2018-08-22T21:41:47.159Z,9.10
2018-08-22T21:44:20.087Z,10.37
2018-08-22T21:47:00.464Z,11.07
2018-08-22T21:49:29.783Z,9.57
2018-08-22T21:51:59.333Z,10.87
2018-08-22T21:54:28.091Z,10.27
2018-08-22T21:56:57.047Z,10.60
2018-08-22T21:59:25.581Z,9.87
2018-08-22T22:01:59.330Z,10.00
2018-08-22T22:04:34.308Z,10.90
2018-08-22T22:07:03.881Z,9.53
2018-08-22T22:09:32.483Z,11.03
2018-08-22T22:12:03.571Z,10.33
2018-08-22T22:14:33.826Z,10.43
2018-08-22T22:17:03.599Z,11.27
2018-08-22T22:19:33.376Z,10.43
2018-08-22T22:22:04.244Z,10.37
2018-08-22T22:24:34.122Z,11.00
2018-08-22T22:27:03.341Z,9.87
2018-08-22T22:29:32.868Z,10.47
2018-08-22T22:32:02.433Z,10.47
2018-08-22T22:34:31.428Z,9.77
2018-08-22T22:36:59.939Z,10.70
2018-08-22T22:39:42.897Z,9.67
2018-08-22T22:42:27.570Z,10.40
2018-08-22T22:44:57.859Z,9.97
2018-08-22T22:47:26.780Z,9.70
2018-08-22T22:49:56.234Z,9.33
2018-08-22T22:52:40.100Z,9.60
2018-08-22T22:55:09.588Z,9.70
2018-08-22T22:57:39.707Z,9.47
2018-08-22T23:00:11.446Z,8.33
2018-08-22T23:02:40.008Z,9.40
2018-08-22T23:05:09.255Z,8.63
2018-08-22T23:07:38.916Z,8.60
2018-08-22T23:10:09.768Z,8.17
2018-08-22T23:12:39.569Z,8.13
2018-08-22T23:15:10.636Z,7.47
2018-08-22T23:17:39.423Z,7.80
2018-08-22T23:20:29.222Z,7.67
2018-08-22T23:22:57.952Z,7.23
2018-08-22T23:25:26.758Z,7.40
2018-08-22T23:27:55.616Z,6.73
2018-08-22T23:30:28.248Z,7.03
2018-08-22T23:32:56.861Z,7.40
2018-08-22T23:35:29.416Z,7.47
2018-08-22T23:37:59.081Z,7.60
2018-08-22T23:40:28.626Z,7.63
2018-08-22T23:42:57.241Z,7.70
2018-08-22T23:45:25.784Z,7.77
2018-08-22T23:47:54.661Z,8.00
2018-08-22T23:50:23.241Z,6.40
2018-08-22T23:52:53.012Z,7.40
2018-08-22T23:55:22.696Z,6.40
2018-08-22T23:57:53.262Z,6.87
